sensor_id;sensor_type;location;lat;lon;timestamp;P1;durP1;ratioP1;P2;durP2;ratioP2
70455;SDS011;57916;51.996;5.180;2024-03-07T00:00:35;52.97;;;25.10;;
70455;SDS011;57916;51.996;5.180;2024-03-07T00:03:02;56.47;;;25.23;;
70455;SDS011;57916;51.996;5.180;2024-03-07T00:05:30;55.47;;;25.20;;
70455;SDS011;57916;51.996;5.180;2024-03-07T00:07:57;54.55;;;25.70;;
70455;SDS011;57916;51.996;5.180;2024-03-07T00:10:25;54.58;;;25.65;;
70455;SDS011;57916;51.996;5.180;2024-03-07T00:12:52;59.58;;;25.70;;
70455;SDS011;57916;51.996;5.180;2024-03-07T00:15:20;52.13;;;24.52;;
70455;SDS011;57916;51.996;5.180;2024-03-07T00:17:47;55.30;;;25.92;;
70455;SDS011;57916;51.996;5.180;2024-03-07T00:20:15;56.95;;;25.80;;
70455;SDS011;57916;51.996;5.180;2024-03-07T00:22:46;57.17;;;25.63;;
70455;SDS011;57916;51.996;5.180;2024-03-07T00:25:13;56.25;;;25.42;;
70455;SDS011;57916;51.996;5.180;2024-03-07T00:27:46;52.20;;;24.73;;
70455;SDS011;57916;51.996;5.180;2024-03-07T00:30:13;57.83;;;25.45;;
70455;SDS011;57916;51.996;5.180;2024-03-07T00:32:40;59.70;;;25.23;;
70455;SDS011;57916;51.996;5.180;2024-03-07T00:35:08;54.33;;;24.50;;
70455;SDS011;57916;51.996;5.180;2024-03-07T00:37:35;58.42;;;25.65;;
70455;SDS011;57916;51.996;5.180;2024-03-07T00:40:03;54.15;;;24.38;;
70455;SDS011;57916;51.996;5.180;2024-03-07T00:42:30;54.55;;;25.40;;
70455;SDS011;57916;51.996;5.180;2024-03-07T00:44:57;58.13;;;25.30;;
70455;SDS011;57916;51.996;5.180;2024-03-07T00:47:24;55.50;;;25.05;;
70455;SDS011;57916;51.996;5.180;2024-03-07T00:49:52;49.67;;;23.50;;
70455;SDS011;57916;51.996;5.180;2024-03-07T00:52:19;60.80;;;26.38;;
70455;SDS011;57916;51.996;5.180;2024-03-07T00:54:46;54.22;;;24.20;;
70455;SDS011;57916;51.996;5.180;2024-03-07T00:57:13;58.72;;;25.50;;
70455;SDS011;57916;51.996;5.180;2024-03-07T00:59:41;54.33;;;24.23;;
70455;SDS011;57916;51.996;5.180;2024-03-07T01:02:08;53.67;;;24.13;;
70455;SDS011;57916;51.996;5.180;2024-03-07T01:04:35;53.38;;;24.05;;
70455;SDS011;57916;51.996;5.180;2024-03-07T01:07:02;57.25;;;25.20;;
70455;SDS011;57916;51.996;5.180;2024-03-07T01:09:30;59.70;;;26.08;;
70455;SDS011;57916;51.996;5.180;2024-03-07T01:11:57;50.70;;;24.52;;
70455;SDS011;57916;51.996;5.180;2024-03-07T01:14:26;50.38;;;24.25;;
70455;SDS011;57916;51.996;5.180;2024-03-07T01:16:54;52.13;;;22.77;;
70455;SDS011;57916;51.996;5.180;2024-03-07T01:19:21;53.65;;;24.73;;
70455;SDS011;57916;51.996;5.180;2024-03-07T01:21:48;60.40;;;25.67;;
70455;SDS011;57916;51.996;5.180;2024-03-07T01:24:15;60.17;;;25.98;;
70455;SDS011;57916;51.996;5.180;2024-03-07T01:26:44;62.47;;;27.40;;
70455;SDS011;57916;51.996;5.180;2024-03-07T01:29:12;60.85;;;26.30;;
70455;SDS011;57916;51.996;5.180;2024-03-07T01:31:40;64.38;;;27.05;;
70455;SDS011;57916;51.996;5.180;2024-03-07T01:34:07;58.10;;;25.95;;
70455;SDS011;57916;51.996;5.180;2024-03-07T01:36:34;61.70;;;27.35;;
70455;SDS011;57916;51.996;5.180;2024-03-07T01:39:01;57.08;;;25.45;;
70455;SDS011;57916;51.996;5.180;2024-03-07T01:41:32;60.33;;;25.60;;
70455;SDS011;57916;51.996;5.180;2024-03-07T01:44:01;65.25;;;28.90;;
70455;SDS011;57916;51.996;5.180;2024-03-07T01:46:28;64.25;;;28.13;;
70455;SDS011;57916;51.996;5.180;2024-03-07T01:48:57;64.72;;;28.27;;
70455;SDS011;57916;51.996;5.180;2024-03-07T01:51:24;64.82;;;29.05;;
70455;SDS011;57916;51.996;5.180;2024-03-07T01:53:52;67.32;;;27.55;;
70455;SDS011;57916;51.996;5.180;2024-03-07T01:56:19;64.20;;;27.45;;
70455;SDS011;57916;51.996;5.180;2024-03-07T01:58:47;68.50;;;29.27;;
70455;SDS011;57916;51.996;5.180;2024-03-07T02:01:15;71.47;;;29.63;;
70455;SDS011;57916;51.996;5.180;2024-03-07T02:03:43;70.38;;;29.60;;
70455;SDS011;57916;51.996;5.180;2024-03-07T02:06:10;74.53;;;30.65;;
70455;SDS011;57916;51.996;5.180;2024-03-07T02:08:38;77.22;;;30.95;;
70455;SDS011;57916;51.996;5.180;2024-03-07T02:11:06;70.57;;;28.90;;
70455;SDS011;57916;51.996;5.180;2024-03-07T02:13:33;70.57;;;29.17;;
70455;SDS011;57916;51.996;5.180;2024-03-07T02:16:01;70.57;;;29.25;;
70455;SDS011;57916;51.996;5.180;2024-03-07T02:18:28;69.72;;;28.25;;
70455;SDS011;57916;51.996;5.180;2024-03-07T02:20:56;74.40;;;29.10;;
70455;SDS011;57916;51.996;5.180;2024-03-07T02:23:23;72.90;;;28.08;;
70455;SDS011;57916;51.996;5.180;2024-03-07T02:25:50;71.30;;;28.67;;
70455;SDS011;57916;51.996;5.180;2024-03-07T02:28:17;73.97;;;30.40;;
70455;SDS011;57916;51.996;5.180;2024-03-07T02:30:44;68.55;;;27.95;;
70455;SDS011;57916;51.996;5.180;2024-03-07T02:33:12;66.78;;;28.10;;
70455;SDS011;57916;51.996;5.180;2024-03-07T02:35:39;70.90;;;29.45;;
70455;SDS011;57916;51.996;5.180;2024-03-07T02:38:06;83.05;;;31.95;;
70455;SDS011;57916;51.996;5.180;2024-03-07T02:40:35;72.13;;;30.90;;
70455;SDS011;57916;51.996;5.180;2024-03-07T02:43:02;84.18;;;33.25;;
70455;SDS011;57916;51.996;5.180;2024-03-07T02:45:33;84.22;;;33.25;;
70455;SDS011;57916;51.996;5.180;2024-03-07T02:48:00;81.10;;;32.70;;
70455;SDS011;57916;51.996;5.180;2024-03-07T02:50:28;73.82;;;31.23;;
70455;SDS011;57916;51.996;5.180;2024-03-07T02:52:55;77.17;;;32.13;;
70455;SDS011;57916;51.996;5.180;2024-03-07T02:55:22;80.13;;;31.92;;
70455;SDS011;57916;51.996;5.180;2024-03-07T02:57:49;82.32;;;33.28;;
70455;SDS011;57916;51.996;5.180;2024-03-07T03:00:17;80.47;;;32.22;;
70455;SDS011;57916;51.996;5.180;2024-03-07T03:02:47;84.82;;;32.58;;
70455;SDS011;57916;51.996;5.180;2024-03-07T03:05:16;78.70;;;32.83;;
70455;SDS011;57916;51.996;5.180;2024-03-07T03:07:45;75.27;;;30.77;;
70455;SDS011;57916;51.996;5.180;2024-03-07T03:10:22;79.53;;;30.55;;
70455;SDS011;57916;51.996;5.180;2024-03-07T03:12:56;78.72;;;32.78;;
70455;SDS011;57916;51.996;5.180;2024-03-07T03:15:26;73.72;;;30.42;;
70455;SDS011;57916;51.996;5.180;2024-03-07T03:17:53;84.63;;;31.90;;
70455;SDS011;57916;51.996;5.180;2024-03-07T03:20:20;75.65;;;31.17;;
70455;SDS011;57916;51.996;5.180;2024-03-07T03:22:54;77.78;;;31.98;;
70455;SDS011;57916;51.996;5.180;2024-03-07T03:25:24;82.30;;;31.92;;
70455;SDS011;57916;51.996;5.180;2024-03-07T03:27:52;81.05;;;32.22;;
70455;SDS011;57916;51.996;5.180;2024-03-07T03:30:19;79.43;;;32.58;;
70455;SDS011;57916;51.996;5.180;2024-03-07T03:32:48;78.35;;;31.60;;
70455;SDS011;57916;51.996;5.180;2024-03-07T03:35:15;76.05;;;31.15;;
70455;SDS011;57916;51.996;5.180;2024-03-07T03:37:43;77.80;;;30.90;;
70455;SDS011;57916;51.996;5.180;2024-03-07T03:40:10;76.77;;;31.80;;
70455;SDS011;57916;51.996;5.180;2024-03-07T03:42:41;78.10;;;31.48;;
70455;SDS011;57916;51.996;5.180;2024-03-07T03:45:09;80.63;;;31.73;;
70455;SDS011;57916;51.996;5.180;2024-03-07T03:47:41;70.40;;;31.15;;
70455;SDS011;57916;51.996;5.180;2024-03-07T03:50:12;75.65;;;31.73;;
70455;SDS011;57916;51.996;5.180;2024-03-07T03:52:40;86.55;;;32.42;;
70455;SDS011;57916;51.996;5.180;2024-03-07T03:55:07;81.15;;;32.10;;
70455;SDS011;57916;51.996;5.180;2024-03-07T03:57:40;75.18;;;31.10;;
70455;SDS011;57916;51.996;5.180;2024-03-07T04:00:09;74.20;;;30.65;;
70455;SDS011;57916;51.996;5.180;2024-03-07T04:02:44;80.68;;;31.70;;
70455;SDS011;57916;51.996;5.180;2024-03-07T04:05:17;75.32;;;30.60;;
70455;SDS011;57916;51.996;5.180;2024-03-07T04:07:46;68.30;;;29.20;;
70455;SDS011;57916;51.996;5.180;2024-03-07T04:10:14;82.25;;;31.13;;
70455;SDS011;57916;51.996;5.180;2024-03-07T04:12:43;79.93;;;32.53;;
70455;SDS011;57916;51.996;5.180;2024-03-07T04:15:11;71.60;;;31.70;;
70455;SDS011;57916;51.996;5.180;2024-03-07T04:17:44;73.50;;;30.92;;
70455;SDS011;57916;51.996;5.180;2024-03-07T04:20:13;69.18;;;29.90;;
70455;SDS011;57916;51.996;5.180;2024-03-07T04:22:45;76.05;;;30.58;;
70455;SDS011;57916;51.996;5.180;2024-03-07T04:25:12;75.45;;;30.30;;
70455;SDS011;57916;51.996;5.180;2024-03-07T04:27:39;74.32;;;31.02;;
70455;SDS011;57916;51.996;5.180;2024-03-07T04:30:07;64.85;;;28.73;;
70455;SDS011;57916;51.996;5.180;2024-03-07T04:32:37;72.72;;;30.67;;
70455;SDS011;57916;51.996;5.180;2024-03-07T04:35:06;68.25;;;29.30;;
70455;SDS011;57916;51.996;5.180;2024-03-07T04:37:40;76.30;;;30.52;;
70455;SDS011;57916;51.996;5.180;2024-03-07T04:40:07;74.28;;;31.27;;
70455;SDS011;57916;51.996;5.180;2024-03-07T04:42:44;80.25;;;32.75;;
70455;SDS011;57916;51.996;5.180;2024-03-07T04:45:12;85.00;;;32.77;;
70455;SDS011;57916;51.996;5.180;2024-03-07T04:47:45;82.60;;;32.63;;
70455;SDS011;57916;51.996;5.180;2024-03-07T04:50:13;73.55;;;32.00;;
70455;SDS011;57916;51.996;5.180;2024-03-07T04:52:45;74.20;;;31.30;;
70455;SDS011;57916;51.996;5.180;2024-03-07T04:55:14;73.88;;;30.50;;
70455;SDS011;57916;51.996;5.180;2024-03-07T04:57:42;74.32;;;31.23;;
70455;SDS011;57916;51.996;5.180;2024-03-07T05:00:12;72.00;;;28.45;;
70455;SDS011;57916;51.996;5.180;2024-03-07T05:02:43;74.15;;;30.73;;
70455;SDS011;57916;51.996;5.180;2024-03-07T05:05:11;70.03;;;29.65;;
70455;SDS011;57916;51.996;5.180;2024-03-07T05:07:40;72.20;;;30.17;;
70455;SDS011;57916;51.996;5.180;2024-03-07T05:10:08;69.93;;;30.42;;
70455;SDS011;57916;51.996;5.180;2024-03-07T05:12:35;86.93;;;31.10;;
70455;SDS011;57916;51.996;5.180;2024-03-07T05:15:04;79.43;;;31.88;;
70455;SDS011;57916;51.996;5.180;2024-03-07T05:17:32;70.72;;;30.67;;
70455;SDS011;57916;51.996;5.180;2024-03-07T05:20:02;77.05;;;30.02;;
70455;SDS011;57916;51.996;5.180;2024-03-07T05:22:30;74.38;;;29.58;;
70455;SDS011;57916;51.996;5.180;2024-03-07T05:24:57;81.60;;;31.00;;
70455;SDS011;57916;51.996;5.180;2024-03-07T05:27:25;75.93;;;29.93;;
70455;SDS011;57916;51.996;5.180;2024-03-07T05:29:55;73.00;;;29.43;;
70455;SDS011;57916;51.996;5.180;2024-03-07T05:34:53;77.40;;;31.08;;
70455;SDS011;57916;51.996;5.180;2024-03-07T05:37:21;70.60;;;30.02;;
70455;SDS011;57916;51.996;5.180;2024-03-07T05:39:50;68.97;;;29.23;;
70455;SDS011;57916;51.996;5.180;2024-03-07T05:42:17;71.55;;;30.33;;
70455;SDS011;57916;51.996;5.180;2024-03-07T05:44:45;71.57;;;30.40;;
70455;SDS011;57916;51.996;5.180;2024-03-07T05:47:12;68.80;;;29.80;;
70455;SDS011;57916;51.996;5.180;2024-03-07T05:49:40;71.00;;;30.52;;
70455;SDS011;57916;51.996;5.180;2024-03-07T05:52:07;73.80;;;30.80;;
70455;SDS011;57916;51.996;5.180;2024-03-07T05:54:35;72.20;;;31.70;;
70455;SDS011;57916;51.996;5.180;2024-03-07T05:57:02;73.07;;;29.67;;
70455;SDS011;57916;51.996;5.180;2024-03-07T05:59:32;73.75;;;30.55;;
70455;SDS011;57916;51.996;5.180;2024-03-07T06:01:59;75.93;;;31.33;;
70455;SDS011;57916;51.996;5.180;2024-03-07T06:04:27;71.93;;;30.00;;
70455;SDS011;57916;51.996;5.180;2024-03-07T06:06:55;75.53;;;30.77;;
70455;SDS011;57916;51.996;5.180;2024-03-07T06:09:22;73.88;;;30.65;;
70455;SDS011;57916;51.996;5.180;2024-03-07T06:11:50;73.60;;;31.42;;
70455;SDS011;57916;51.996;5.180;2024-03-07T06:14:18;78.63;;;31.60;;
70455;SDS011;57916;51.996;5.180;2024-03-07T06:16:46;77.88;;;31.70;;
70455;SDS011;57916;51.996;5.180;2024-03-07T06:19:13;71.45;;;30.95;;
70455;SDS011;57916;51.996;5.180;2024-03-07T06:21:41;70.35;;;30.33;;
70455;SDS011;57916;51.996;5.180;2024-03-07T06:24:09;71.43;;;30.70;;
70455;SDS011;57916;51.996;5.180;2024-03-07T06:26:38;78.47;;;32.70;;
70455;SDS011;57916;51.996;5.180;2024-03-07T06:29:14;72.25;;;30.90;;
70455;SDS011;57916;51.996;5.180;2024-03-07T06:31:43;74.47;;;31.70;;
70455;SDS011;57916;51.996;5.180;2024-03-07T06:34:13;78.60;;;31.27;;
70455;SDS011;57916;51.996;5.180;2024-03-07T06:36:41;78.07;;;31.98;;
70455;SDS011;57916;51.996;5.180;2024-03-07T06:39:08;75.20;;;31.67;;
70455;SDS011;57916;51.996;5.180;2024-03-07T06:41:37;74.47;;;30.88;;
70455;SDS011;57916;51.996;5.180;2024-03-07T06:44:05;71.67;;;30.17;;
70455;SDS011;57916;51.996;5.180;2024-03-07T06:46:34;68.53;;;26.70;;
70455;SDS011;57916;51.996;5.180;2024-03-07T06:49:01;72.85;;;30.85;;
70455;SDS011;57916;51.996;5.180;2024-03-07T06:51:28;67.28;;;29.58;;
70455;SDS011;57916;51.996;5.180;2024-03-07T06:53:56;68.13;;;30.95;;
70455;SDS011;57916;51.996;5.180;2024-03-07T06:56:23;68.90;;;31.27;;
70455;SDS011;57916;51.996;5.180;2024-03-07T06:58:51;65.30;;;29.75;;
70455;SDS011;57916;51.996;5.180;2024-03-07T07:01:18;71.85;;;31.08;;
70455;SDS011;57916;51.996;5.180;2024-03-07T07:03:46;71.38;;;31.17;;
70455;SDS011;57916;51.996;5.180;2024-03-07T07:06:15;67.13;;;30.25;;
70455;SDS011;57916;51.996;5.180;2024-03-07T07:08:43;68.95;;;29.92;;
70455;SDS011;57916;51.996;5.180;2024-03-07T07:11:12;60.97;;;29.40;;
70455;SDS011;57916;51.996;5.180;2024-03-07T07:13:39;66.47;;;29.88;;
70455;SDS011;57916;51.996;5.180;2024-03-07T07:16:08;68.25;;;31.10;;
70455;SDS011;57916;51.996;5.180;2024-03-07T07:18:36;66.95;;;29.02;;
70455;SDS011;57916;51.996;5.180;2024-03-07T07:21:05;63.83;;;29.20;;
70455;SDS011;57916;51.996;5.180;2024-03-07T07:23:37;53.92;;;25.67;;
70455;SDS011;57916;51.996;5.180;2024-03-07T07:26:05;55.70;;;25.70;;
70455;SDS011;57916;51.996;5.180;2024-03-07T07:28:32;53.67;;;27.20;;
70455;SDS011;57916;51.996;5.180;2024-03-07T07:30:59;49.20;;;22.73;;
70455;SDS011;57916;51.996;5.180;2024-03-07T07:33:27;49.03;;;24.40;;
70455;SDS011;57916;51.996;5.180;2024-03-07T07:35:54;33.38;;;17.05;;
70455;SDS011;57916;51.996;5.180;2024-03-07T07:38:21;39.03;;;19.73;;
70455;SDS011;57916;51.996;5.180;2024-03-07T07:40:48;39.10;;;18.13;;
70455;SDS011;57916;51.996;5.180;2024-03-07T07:43:17;46.70;;;21.45;;
70455;SDS011;57916;51.996;5.180;2024-03-07T07:45:59;14.93;;;9.13;;
70455;SDS011;57916;51.996;5.180;2024-03-07T07:48:27;20.27;;;10.77;;
70455;SDS011;57916;51.996;5.180;2024-03-07T07:50:54;41.90;;;21.33;;
70455;SDS011;57916;51.996;5.180;2024-03-07T07:53:22;36.72;;;18.67;;
70455;SDS011;57916;51.996;5.180;2024-03-07T07:55:49;28.77;;;15.05;;
70455;SDS011;57916;51.996;5.180;2024-03-07T07:58:17;30.40;;;14.07;;
70455;SDS011;57916;51.996;5.180;2024-03-07T08:00:44;41.90;;;21.37;;
70455;SDS011;57916;51.996;5.180;2024-03-07T08:03:11;24.93;;;14.03;;
70455;SDS011;57916;51.996;5.180;2024-03-07T08:05:41;19.42;;;11.52;;
70455;SDS011;57916;51.996;5.180;2024-03-07T08:08:10;32.65;;;16.52;;
70455;SDS011;57916;51.996;5.180;2024-03-07T08:10:40;19.20;;;10.52;;
70455;SDS011;57916;51.996;5.180;2024-03-07T08:13:12;25.25;;;13.02;;
70455;SDS011;57916;51.996;5.180;2024-03-07T08:15:40;34.95;;;16.75;;
70455;SDS011;57916;51.996;5.180;2024-03-07T08:18:08;21.83;;;11.60;;
70455;SDS011;57916;51.996;5.180;2024-03-07T08:20:37;25.95;;;14.10;;
70455;SDS011;57916;51.996;5.180;2024-03-07T08:23:06;34.45;;;18.48;;
70455;SDS011;57916;51.996;5.180;2024-03-07T08:25:33;22.15;;;11.55;;
70455;SDS011;57916;51.996;5.180;2024-03-07T08:28:00;19.55;;;11.35;;
70455;SDS011;57916;51.996;5.180;2024-03-07T08:30:27;30.23;;;16.30;;
70455;SDS011;57916;51.996;5.180;2024-03-07T08:32:56;21.87;;;11.93;;
70455;SDS011;57916;51.996;5.180;2024-03-07T08:35:24;17.10;;;8.63;;
70455;SDS011;57916;51.996;5.180;2024-03-07T08:37:52;16.73;;;9.43;;
70455;SDS011;57916;51.996;5.180;2024-03-07T08:40:22;31.98;;;16.75;;
70455;SDS011;57916;51.996;5.180;2024-03-07T08:42:55;14.43;;;9.32;;
70455;SDS011;57916;51.996;5.180;2024-03-07T08:45:27;14.40;;;9.38;;
70455;SDS011;57916;51.996;5.180;2024-03-07T08:47:55;18.15;;;10.95;;
70455;SDS011;57916;51.996;5.180;2024-03-07T08:50:25;17.65;;;11.48;;
70455;SDS011;57916;51.996;5.180;2024-03-07T08:52:54;12.60;;;7.10;;
70455;SDS011;57916;51.996;5.180;2024-03-07T08:55:23;23.80;;;14.45;;
70455;SDS011;57916;51.996;5.180;2024-03-07T08:57:53;7.25;;;5.90;;
70455;SDS011;57916;51.996;5.180;2024-03-07T09:00:21;17.33;;;9.27;;
70455;SDS011;57916;51.996;5.180;2024-03-07T09:02:50;22.33;;;13.53;;
70455;SDS011;57916;51.996;5.180;2024-03-07T09:05:21;18.02;;;11.02;;
70455;SDS011;57916;51.996;5.180;2024-03-07T09:07:51;12.80;;;9.65;;
70455;SDS011;57916;51.996;5.180;2024-03-07T09:10:19;10.80;;;7.57;;
70455;SDS011;57916;51.996;5.180;2024-03-07T09:12:48;16.15;;;11.38;;
70455;SDS011;57916;51.996;5.180;2024-03-07T09:15:16;23.97;;;12.73;;
70455;SDS011;57916;51.996;5.180;2024-03-07T09:17:45;9.88;;;7.03;;
70455;SDS011;57916;51.996;5.180;2024-03-07T09:20:13;9.63;;;6.50;;
70455;SDS011;57916;51.996;5.180;2024-03-07T09:22:42;10.65;;;8.52;;
70455;SDS011;57916;51.996;5.180;2024-03-07T09:25:10;13.90;;;8.73;;
70455;SDS011;57916;51.996;5.180;2024-03-07T09:27:39;11.88;;;8.85;;
70455;SDS011;57916;51.996;5.180;2024-03-07T09:30:08;12.93;;;8.32;;
70455;SDS011;57916;51.996;5.180;2024-03-07T09:32:42;17.08;;;10.85;;
70455;SDS011;57916;51.996;5.180;2024-03-07T09:35:10;14.93;;;9.85;;
70455;SDS011;57916;51.996;5.180;2024-03-07T09:37:42;14.70;;;8.30;;
70455;SDS011;57916;51.996;5.180;2024-03-07T09:40:10;10.85;;;7.35;;
70455;SDS011;57916;51.996;5.180;2024-03-07T09:42:46;7.68;;;6.00;;
70455;SDS011;57916;51.996;5.180;2024-03-07T09:45:19;10.55;;;9.18;;
70455;SDS011;57916;51.996;5.180;2024-03-07T09:47:50;14.82;;;9.55;;
70455;SDS011;57916;51.996;5.180;2024-03-07T09:50:20;8.27;;;5.43;;
70455;SDS011;57916;51.996;5.180;2024-03-07T09:52:50;7.22;;;6.03;;
70455;SDS011;57916;51.996;5.180;2024-03-07T09:55:21;14.20;;;9.77;;
70455;SDS011;57916;51.996;5.180;2024-03-07T09:57:52;8.02;;;6.28;;
70455;SDS011;57916;51.996;5.180;2024-03-07T10:00:23;15.82;;;10.60;;
70455;SDS011;57916;51.996;5.180;2024-03-07T10:02:58;12.18;;;9.18;;
70455;SDS011;57916;51.996;5.180;2024-03-07T10:05:29;11.77;;;7.38;;
70455;SDS011;57916;51.996;5.180;2024-03-07T10:07:58;10.65;;;7.20;;
70455;SDS011;57916;51.996;5.180;2024-03-07T10:10:26;12.20;;;9.07;;
70455;SDS011;57916;51.996;5.180;2024-03-07T10:12:53;14.55;;;8.93;;
70455;SDS011;57916;51.996;5.180;2024-03-07T10:15:20;13.43;;;10.57;;
70455;SDS011;57916;51.996;5.180;2024-03-07T10:17:49;11.40;;;8.45;;
70455;SDS011;57916;51.996;5.180;2024-03-07T10:20:18;12.50;;;8.95;;
70455;SDS011;57916;51.996;5.180;2024-03-07T10:22:49;18.98;;;10.93;;
70455;SDS011;57916;51.996;5.180;2024-03-07T10:25:17;18.23;;;11.73;;
70455;SDS011;57916;51.996;5.180;2024-03-07T10:27:46;20.75;;;12.30;;
70455;SDS011;57916;51.996;5.180;2024-03-07T10:30:16;16.30;;;10.70;;
70455;SDS011;57916;51.996;5.180;2024-03-07T10:32:57;17.95;;;11.63;;
70455;SDS011;57916;51.996;5.180;2024-03-07T10:35:28;14.75;;;9.45;;
70455;SDS011;57916;51.996;5.180;2024-03-07T10:37:58;16.33;;;10.50;;
70455;SDS011;57916;51.996;5.180;2024-03-07T10:40:33;17.92;;;11.98;;
70455;SDS011;57916;51.996;5.180;2024-03-07T10:43:09;10.10;;;5.00;;
70455;SDS011;57916;51.996;5.180;2024-03-07T10:45:45;18.33;;;11.82;;
70455;SDS011;57916;51.996;5.180;2024-03-07T10:48:19;7.27;;;5.43;;
70455;SDS011;57916;51.996;5.180;2024-03-07T10:50:59;12.15;;;7.80;;
70455;SDS011;57916;51.996;5.180;2024-03-07T10:54:17;8.48;;;6.15;;
70455;SDS011;57916;51.996;5.180;2024-03-07T10:59:27;12.32;;;8.00;;
70455;SDS011;57916;51.996;5.180;2024-03-07T11:01:59;7.47;;;5.63;;
70455;SDS011;57916;51.996;5.180;2024-03-07T11:04:33;15.85;;;9.57;;
70455;SDS011;57916;51.996;5.180;2024-03-07T11:07:01;8.50;;;6.28;;
70455;SDS011;57916;51.996;5.180;2024-03-07T11:09:28;9.55;;;6.03;;
70455;SDS011;57916;51.996;5.180;2024-03-07T11:12:00;14.45;;;8.63;;
70455;SDS011;57916;51.996;5.180;2024-03-07T11:14:33;7.50;;;5.33;;
70455;SDS011;57916;51.996;5.180;2024-03-07T11:17:02;12.80;;;8.38;;
70455;SDS011;57916;51.996;5.180;2024-03-07T11:19:33;17.88;;;10.55;;
70455;SDS011;57916;51.996;5.180;2024-03-07T11:22:04;17.55;;;10.25;;
70455;SDS011;57916;51.996;5.180;2024-03-07T11:24:44;18.80;;;11.25;;
70455;SDS011;57916;51.996;5.180;2024-03-07T11:27:26;14.23;;;8.52;;
70455;SDS011;57916;51.996;5.180;2024-03-07T11:29:53;19.00;;;11.20;;
70455;SDS011;57916;51.996;5.180;2024-03-07T11:32:21;8.80;;;6.90;;
70455;SDS011;57916;51.996;5.180;2024-03-07T11:34:50;18.65;;;10.45;;
70455;SDS011;57916;51.996;5.180;2024-03-07T11:37:37;13.32;;;9.80;;
70455;SDS011;57916;51.996;5.180;2024-03-07T11:42:54;18.73;;;12.60;;
70455;SDS011;57916;51.996;5.180;2024-03-07T11:45:26;20.45;;;12.18;;
70455;SDS011;57916;51.996;5.180;2024-03-07T11:47:57;16.15;;;10.00;;
70455;SDS011;57916;51.996;5.180;2024-03-07T11:50:34;19.73;;;10.70;;
70455;SDS011;57916;51.996;5.180;2024-03-07T11:53:03;18.67;;;10.93;;
70455;SDS011;57916;51.996;5.180;2024-03-07T11:55:36;21.67;;;13.00;;
70455;SDS011;57916;51.996;5.180;2024-03-07T12:00:48;21.15;;;12.40;;
70455;SDS011;57916;51.996;5.180;2024-03-07T12:03:19;21.60;;;12.13;;
70455;SDS011;57916;51.996;5.180;2024-03-07T12:05:52;17.10;;;11.40;;
70455;SDS011;57916;51.996;5.180;2024-03-07T12:08:20;9.68;;;7.07;;
70455;SDS011;57916;51.996;5.180;2024-03-07T12:10:52;12.32;;;7.20;;
70455;SDS011;57916;51.996;5.180;2024-03-07T12:13:24;15.13;;;9.48;;
70455;SDS011;57916;51.996;5.180;2024-03-07T12:15:53;20.02;;;11.65;;
70455;SDS011;57916;51.996;5.180;2024-03-07T12:18:22;17.85;;;11.45;;
70455;SDS011;57916;51.996;5.180;2024-03-07T12:20:51;13.13;;;8.27;;
70455;SDS011;57916;51.996;5.180;2024-03-07T12:23:23;14.27;;;10.27;;
70455;SDS011;57916;51.996;5.180;2024-03-07T12:26:00;20.92;;;12.23;;
70455;SDS011;57916;51.996;5.180;2024-03-07T12:28:32;20.48;;;11.13;;
70455;SDS011;57916;51.996;5.180;2024-03-07T12:31:05;19.50;;;11.10;;
70455;SDS011;57916;51.996;5.180;2024-03-07T12:33:43;23.67;;;13.43;;
70455;SDS011;57916;51.996;5.180;2024-03-07T12:36:14;19.33;;;11.02;;
70455;SDS011;57916;51.996;5.180;2024-03-07T12:38:43;11.35;;;7.65;;
70455;SDS011;57916;51.996;5.180;2024-03-07T12:41:10;10.52;;;8.15;;
70455;SDS011;57916;51.996;5.180;2024-03-07T12:43:43;21.70;;;11.63;;
70455;SDS011;57916;51.996;5.180;2024-03-07T12:46:12;18.92;;;9.93;;
70455;SDS011;57916;51.996;5.180;2024-03-07T12:48:41;18.92;;;9.93;;
70455;SDS011;57916;51.996;5.180;2024-03-07T12:51:13;16.15;;;10.43;;
70455;SDS011;57916;51.996;5.180;2024-03-07T12:53:46;18.13;;;9.93;;
70455;SDS011;57916;51.996;5.180;2024-03-07T12:56:14;18.03;;;11.50;;
70455;SDS011;57916;51.996;5.180;2024-03-07T12:58:50;16.75;;;10.30;;
70455;SDS011;57916;51.996;5.180;2024-03-07T13:01:18;17.60;;;9.52;;
70455;SDS011;57916;51.996;5.180;2024-03-07T13:03:47;14.20;;;8.77;;
70455;SDS011;57916;51.996;5.180;2024-03-07T13:06:15;15.23;;;9.60;;
70455;SDS011;57916;51.996;5.180;2024-03-07T13:08:46;11.77;;;7.05;;
70455;SDS011;57916;51.996;5.180;2024-03-07T13:11:13;18.48;;;10.27;;
70455;SDS011;57916;51.996;5.180;2024-03-07T13:13:40;15.93;;;9.43;;
70455;SDS011;57916;51.996;5.180;2024-03-07T13:16:07;16.27;;;9.93;;
70455;SDS011;57916;51.996;5.180;2024-03-07T13:18:35;16.90;;;9.68;;
70455;SDS011;57916;51.996;5.180;2024-03-07T13:21:04;12.17;;;8.00;;
70455;SDS011;57916;51.996;5.180;2024-03-07T13:23:33;7.73;;;5.70;;
70455;SDS011;57916;51.996;5.180;2024-03-07T13:26:02;15.57;;;9.20;;
70455;SDS011;57916;51.996;5.180;2024-03-07T13:28:35;10.48;;;7.28;;
70455;SDS011;57916;51.996;5.180;2024-03-07T13:31:02;17.67;;;9.85;;
70455;SDS011;57916;51.996;5.180;2024-03-07T13:33:30;8.83;;;6.57;;
70455;SDS011;57916;51.996;5.180;2024-03-07T13:35:57;10.07;;;6.22;;
70455;SDS011;57916;51.996;5.180;2024-03-07T13:38:27;10.50;;;7.63;;
70455;SDS011;57916;51.996;5.180;2024-03-07T13:40:54;13.02;;;6.57;;
70455;SDS011;57916;51.996;5.180;2024-03-07T13:43:23;11.23;;;7.57;;
70455;SDS011;57916;51.996;5.180;2024-03-07T13:45:50;8.98;;;5.47;;
70455;SDS011;57916;51.996;5.180;2024-03-07T13:48:18;4.93;;;4.43;;
70455;SDS011;57916;51.996;5.180;2024-03-07T13:50:46;11.25;;;7.55;;
70455;SDS011;57916;51.996;5.180;2024-03-07T13:53:28;6.63;;;5.28;;
70455;SDS011;57916;51.996;5.180;2024-03-07T14:07:07;11.32;;;7.95;;
70455;SDS011;57916;51.996;5.180;2024-03-07T14:19:19;11.27;;;7.25;;
70455;SDS011;57916;51.996;5.180;2024-03-07T14:22:16;6.28;;;5.63;;
70455;SDS011;57916;51.996;5.180;2024-03-07T14:25:11;12.00;;;8.45;;
70455;SDS011;57916;51.996;5.180;2024-03-07T14:31:05;13.48;;;8.00;;
70455;SDS011;57916;51.996;5.180;2024-03-07T14:39:43;6.65;;;5.78;;
70455;SDS011;57916;51.996;5.180;2024-03-07T14:42:14;8.97;;;7.23;;
70455;SDS011;57916;51.996;5.180;2024-03-07T14:44:42;16.50;;;10.90;;
70455;SDS011;57916;51.996;5.180;2024-03-07T14:47:12;17.08;;;11.45;;
70455;SDS011;57916;51.996;5.180;2024-03-07T14:49:41;20.73;;;12.30;;
70455;SDS011;57916;51.996;5.180;2024-03-07T14:52:08;14.95;;;10.35;;
70455;SDS011;57916;51.996;5.180;2024-03-07T14:54:38;13.23;;;8.93;;
70455;SDS011;57916;51.996;5.180;2024-03-07T14:57:05;18.83;;;11.55;;
70455;SDS011;57916;51.996;5.180;2024-03-07T14:59:34;13.97;;;10.07;;
70455;SDS011;57916;51.996;5.180;2024-03-07T15:02:01;20.17;;;12.10;;
70455;SDS011;57916;51.996;5.180;2024-03-07T15:04:31;9.93;;;6.85;;
70455;SDS011;57916;51.996;5.180;2024-03-07T15:06:59;10.75;;;8.52;;
70455;SDS011;57916;51.996;5.180;2024-03-07T15:09:29;12.70;;;8.05;;
70455;SDS011;57916;51.996;5.180;2024-03-07T15:12:00;15.15;;;10.63;;
70455;SDS011;57916;51.996;5.180;2024-03-07T15:14:28;9.02;;;6.53;;
70455;SDS011;57916;51.996;5.180;2024-03-07T15:17:04;9.60;;;7.50;;
70455;SDS011;57916;51.996;5.180;2024-03-07T15:19:33;8.07;;;6.25;;